Time;durP1;ratioP1;P1;durP2;ratioP2;P2;SDS_P1;SDS_P2;PMS_P1;PMS_P2;Temp;Humidity;BMP_temperature;BMP_pressure;BME280_temperature;BME280_humidity;BME280_pressure;Samples;Min_cycle;Max_cycle;Signal;HPM_P1;HPM_P2
2023/11/25 00:01:55;;;;;;;7.32;0.80;;;;;;;;;;5040413;28;20049;-73
2023/11/25 00:04:25;;;;;;;3.78;0.98;;;;;;;;;;5042381;28;20411;-74
2023/11/25 00:06:57;;;;;;;2.00;0.60;;;;;;;;;;5039859;28;20056;-73
2023/11/25 00:09:27;;;;;;;6.78;1.00;;;;;;;;;;5040589;28;20048;-74
2023/11/25 00:11:58;;;;;;;6.03;0.80;;;;;;;;;;5041664;28;20040;-74
2023/11/25 00:14:28;;;;;;;4.30;0.70;;;;;;;;;;5041656;28;20412;-74
2023/11/25 00:16:59;;;;;;;6.93;0.60;;;;;;;;;;5041963;28;20060;-76
2023/11/25 00:19:30;;;;;;;3.00;0.63;;;;;;;;;;5042096;28;20068;-77
2023/11/25 00:23:01;;;;;;;10.20;1.30;;;;;;;;;;5041938;28;20056;-76
2023/11/25 00:25:31;;;;;;;2.85;0.50;;;;;;;;;;5041966;28;20041;-74
2023/11/25 00:28:04;;;;;;;3.42;0.50;;;;;;;;;;5041870;28;20068;-73
2023/11/25 00:30:35;;;;;;;6.78;0.60;;;;;;;;;;5041121;28;20045;-74
2023/11/25 00:33:05;;;;;;;4.60;0.95;;;;;;;;;;5041277;28;20056;-73
2023/11/25 00:35:36;;;;;;;8.07;1.20;;;;;;;;;;5040025;28;20056;-73
2023/11/25 00:38:08;;;;;;;7.88;1.02;;;;;;;;;;5040515;28;20057;-73
2023/11/25 00:40:39;;;;;;;5.18;0.80;;;;;;;;;;5034342;28;20068;-74
2023/11/25 00:43:11;;;;;;;7.38;0.70;;;;;;;;;;5041518;28;20049;-73
2023/11/25 00:45:42;;;;;;;5.13;0.90;;;;;;;;;;5041813;28;20057;-74
2023/11/25 00:48:12;;;;;;;1.65;0.77;;;;;;;;;;5041724;28;20610;-74
2023/11/25 00:50:43;;;;;;;3.78;0.77;;;;;;;;;;5039461;28;20136;-73
2023/11/25 00:53:15;;;;;;;2.28;0.50;;;;;;;;;;5040465;28;20522;-79
2023/11/25 00:55:46;;;;;;;3.58;0.40;;;;;;;;;;5044142;28;20048;-73
2023/11/25 00:58:18;;;;;;;5.32;0.80;;;;;;;;;;5045079;28;20412;-73
2023/11/25 01:00:50;;;;;;;1.65;0.50;;;;;;;;;;5044814;28;20052;-74
2023/11/25 01:03:20;;;;;;;4.38;0.60;;;;;;;;;;5044655;28;20053;-73
2023/11/25 01:05:50;;;;;;;4.53;0.85;;;;;;;;;;5043945;28;20068;-73
2023/11/25 01:08:25;;;;;;;4.70;0.68;;;;;;;;;;5043057;28;20045;-74
2023/11/25 01:10:56;;;;;;;0.90;0.40;;;;;;;;;;5042526;28;20061;-78
2023/11/25 01:13:26;;;;;;;2.67;0.70;;;;;;;;;;5042490;28;20064;-73
2023/11/25 01:16:00;;;;;;;3.10;0.52;;;;;;;;;;5044906;28;20052;-73
2023/11/25 01:18:31;;;;;;;2.22;0.30;;;;;;;;;;5043168;28;20057;-73
2023/11/25 01:21:01;;;;;;;3.90;0.50;;;;;;;;;;5044820;28;20048;-74
2023/11/25 01:23:35;;;;;;;3.13;0.52;;;;;;;;;;5044136;28;20061;-74
2023/11/25 01:26:06;;;;;;;7.05;0.70;;;;;;;;;;5045017;28;20060;-73
2023/11/25 01:28:37;;;;;;;3.80;1.00;;;;;;;;;;5043259;28;20060;-73
2023/11/25 01:31:10;;;;;;;3.33;0.50;;;;;;;;;;5044832;28;20045;-74
2023/11/25 01:33:40;;;;;;;6.22;0.70;;;;;;;;;;5043210;28;20420;-73
2023/11/25 01:36:11;;;;;;;6.72;0.60;;;;;;;;;;5045166;28;20041;-73
2023/11/25 01:38:41;;;;;;;6.30;0.70;;;;;;;;;;5045359;28;20440;-73
2023/11/25 01:41:12;;;;;;;4.53;0.40;;;;;;;;;;5044318;28;20052;-73
2023/11/25 01:43:42;;;;;;;4.63;0.63;;;;;;;;;;5044440;28;20060;-73
2023/11/25 01:46:38;;;;;;;5.03;0.60;;;;;;;;;;5043840;28;20517;-75
2023/11/25 01:49:14;;;;;;;2.97;0.22;;;;;;;;;;5044550;28;20053;-73
2023/11/25 01:51:48;;;;;;;2.75;0.82;;;;;;;;;;5043977;28;20049;-73
2023/11/25 01:54:21;;;;;;;5.55;0.50;;;;;;;;;;5044081;28;20136;-73
2023/11/25 01:56:56;;;;;;;3.78;0.70;;;;;;;;;;5043030;28;20060;-74
2023/11/25 01:59:29;;;;;;;4.90;0.80;;;;;;;;;;5042865;28;20060;-73
2023/11/25 02:02:01;;;;;;;5.30;0.65;;;;;;;;;;5043511;28;20527;-73
2023/11/25 02:04:34;;;;;;;9.63;0.80;;;;;;;;;;5042699;28;20507;-73
2023/11/25 02:07:05;;;;;;;4.28;0.80;;;;;;;;;;5043738;28;20423;-73
2023/11/25 02:10:11;;;;;;;3.67;0.50;;;;;;;;;;5044324;28;20048;-73
2023/11/25 02:12:42;;;;;;;;;;;;;;;;;;5044185;28;20045;-74
2023/11/25 02:15:14;;;;;;;2.97;0.77;;;;;;;;;;5044953;28;20284;-73
2023/11/25 02:17:45;;;;;;;4.15;0.73;;;;;;;;;;5042427;28;20049;-73
2023/11/25 02:20:29;;;;;;;4.50;0.60;;;;;;;;;;5043154;28;20061;-74
2023/11/25 02:23:08;;;;;;;3.53;0.82;;;;;;;;;;5041484;28;20067;-73
2023/11/25 02:25:38;;;;;;;3.25;0.63;;;;;;;;;;5043547;28;20052;-73
2023/11/25 02:28:09;;;;;;;4.85;1.02;;;;;;;;;;5043534;28;20045;-73
2023/11/25 02:30:39;;;;;;;8.40;0.70;;;;;;;;;;5043299;28;20047;-73
2023/11/25 02:33:11;;;;;;;5.03;0.50;;;;;;;;;;5043162;28;20045;-73
2023/11/25 02:35:43;;;;;;;7.25;0.90;;;;;;;;;;5042231;28;20424;-73
2023/11/25 02:38:15;;;;;;;5.63;0.88;;;;;;;;;;5043039;28;20056;-73
2023/11/25 02:40:46;;;;;;;3.38;0.63;;;;;;;;;;5043093;28;20819;-73
2023/11/25 02:43:17;;;;;;;7.13;0.80;;;;;;;;;;5044054;28;20515;-73
2023/11/25 02:45:48;;;;;;;2.17;0.60;;;;;;;;;;5042512;28;20048;-73
2023/11/25 02:48:19;;;;;;;1.33;0.50;;;;;;;;;;5043480;28;20389;-73
2023/11/25 02:50:49;;;;;;;1.88;0.85;;;;;;;;;;5042054;28;20424;-73
2023/11/25 02:53:20;;;;;;;1.65;0.50;;;;;;;;;;5041194;28;20052;-73
2023/11/25 02:55:50;;;;;;;4.03;0.70;;;;;;;;;;5041403;28;20539;-73
2023/11/25 02:58:22;;;;;;;2.28;0.40;;;;;;;;;;5042802;28;20358;-73
2023/11/25 03:01:00;;;;;;;7.28;0.52;;;;;;;;;;5042951;28;20057;-74
2023/11/25 03:03:32;;;;;;;1.75;0.32;;;;;;;;;;5042825;28;20405;-73
2023/11/25 03:06:06;;;;;;;1.98;0.43;;;;;;;;;;5041547;28;20049;-73
2023/11/25 03:08:38;;;;;;;6.00;0.80;;;;;;;;;;5040622;28;20076;-73
2023/11/25 03:11:15;;;;;;;5.65;0.45;;;;;;;;;;5042479;28;20530;-73
2023/11/25 03:13:46;;;;;;;5.82;0.63;;;;;;;;;;5042722;28;20511;-73
2023/11/25 03:16:24;;;;;;;2.65;0.75;;;;;;;;;;5040624;28;20423;-73
2023/11/25 03:18:55;;;;;;;4.20;0.77;;;;;;;;;;5041881;28;20048;-73
2023/11/25 03:21:26;;;;;;;2.50;0.60;;;;;;;;;;5042954;28;20059;-73
2023/11/25 03:23:59;;;;;;;2.15;0.60;;;;;;;;;;5040367;28;20045;-73
2023/11/25 03:26:30;;;;;;;1.77;0.30;;;;;;;;;;5042727;28;21163;-73
2023/11/25 03:29:00;;;;;;;3.35;0.38;;;;;;;;;;5042751;28;20519;-73
2023/11/25 03:31:33;;;;;;;9.25;0.82;;;;;;;;;;5042252;28;20805;-73
2023/11/25 03:34:04;;;;;;;2.63;0.57;;;;;;;;;;5042597;28;20049;-73
2023/11/25 03:37:34;;;;;;;3.22;0.70;;;;;;;;;;5042608;28;20056;-73
2023/11/25 03:40:10;;;;;;;3.70;0.60;;;;;;;;;;5042312;28;20041;-72
2023/11/25 03:42:44;;;;;;;2.55;0.88;;;;;;;;;;5042440;28;20135;-73
2023/11/25 03:45:14;;;;;;;9.60;0.60;;;;;;;;;;5041883;28;20045;-73
2023/11/25 03:47:45;;;;;;;3.85;0.80;;;;;;;;;;5042014;28;20064;-74
2023/11/25 03:50:16;;;;;;;3.05;0.55;;;;;;;;;;5041618;28;20508;-73
2023/11/25 03:52:47;;;;;;;1.42;0.50;;;;;;;;;;5042321;28;20052;-73
2023/11/25 03:55:17;;;;;;;2.00;0.43;;;;;;;;;;5042038;28;20526;-73
2023/11/25 03:57:48;;;;;;;4.28;0.70;;;;;;;;;;5042291;28;20045;-73
2023/11/25 04:00:22;;;;;;;8.00;0.60;;;;;;;;;;5042224;28;20511;-73
2023/11/25 04:02:53;;;;;;;4.10;0.65;;;;;;;;;;5041458;28;20045;-73
2023/11/25 04:05:24;;;;;;;2.55;0.43;;;;;;;;;;5042507;28;20040;-73
2023/11/25 04:07:54;;;;;;;2.55;0.40;;;;;;;;;;5041528;28;20653;-73
2023/11/25 04:10:26;;;;;;;3.35;0.30;;;;;;;;;;5040887;28;20078;-73
2023/11/25 04:12:57;;;;;;;3.20;0.65;;;;;;;;;;5042055;28;20041;-73
2023/11/25 04:15:28;;;;;;;5.20;0.85;;;;;;;;;;5041698;28;20403;-73
2023/11/25 04:17:58;;;;;;;3.10;0.50;;;;;;;;;;5041586;28;20041;-73
2023/11/25 04:20:28;;;;;;;4.25;0.85;;;;;;;;;;5041874;28;20419;-73
2023/11/25 04:23:08;;;;;;;3.05;0.35;;;;;;;;;;5041886;28;20052;-73
2023/11/25 04:25:39;;;;;;;0.90;0.60;;;;;;;;;;5041756;28;20048;-73
2023/11/25 04:28:14;;;;;;;1.77;0.43;;;;;;;;;;5041885;28;20386;-73
2023/11/25 04:30:44;;;;;;;2.78;0.40;;;;;;;;;;5044503;28;20045;-73
2023/11/25 04:33:14;;;;;;;3.03;0.40;;;;;;;;;;5045650;28;20072;-73
2023/11/25 04:35:45;;;;;;;2.15;0.50;;;;;;;;;;5045317;28;20407;-73
2023/11/25 04:38:15;;;;;;;5.80;0.52;;;;;;;;;;5046042;28;20057;-73
2023/11/25 04:40:45;;;;;;;2.40;0.32;;;;;;;;;;5045978;28;20052;-73
2023/11/25 04:43:16;;;;;;;5.68;0.63;;;;;;;;;;5046897;28;20055;-73
2023/11/25 04:45:48;;;;;;;8.82;0.50;;;;;;;;;;5046736;28;20045;-73
2023/11/25 04:48:19;;;;;;;2.33;0.43;;;;;;;;;;5045427;28;20060;-73
2023/11/25 04:50:49;;;;;;;2.42;0.50;;;;;;;;;;5045082;28;20060;-73
2023/11/25 04:53:19;;;;;;;3.67;0.68;;;;;;;;;;5045277;28;20603;-73
2023/11/25 04:58:53;;;;;;;4.18;0.60;;;;;;;;;;5045067;28;20515;-73
2023/11/25 05:01:25;;;;;;;2.97;0.55;;;;;;;;;;5045677;28;20052;-73
2023/11/25 05:03:56;;;;;;;4.93;1.00;;;;;;;;;;5044993;28;20057;-73
2023/11/25 05:06:26;;;;;;;7.00;0.90;;;;;;;;;;5045352;28;20041;-73
2023/11/25 05:08:57;;;;;;;8.80;1.10;;;;;;;;;;5045132;28;20511;-73
2023/11/25 05:11:28;;;;;;;6.68;0.52;;;;;;;;;;5044336;28;20059;-73
2023/11/25 05:13:58;;;;;;;1.13;0.22;;;;;;;;;;5045537;28;20072;-73
2023/11/25 05:16:28;;;;;;;5.50;0.68;;;;;;;;;;5045785;28;20052;-73
2023/11/25 05:18:58;;;;;;;1.73;0.50;;;;;;;;;;5046049;28;20545;-73
2023/11/25 05:21:29;;;;;;;5.32;0.90;;;;;;;;;;5045293;28;20060;-73
2023/11/25 05:24:00;;;;;;;5.10;0.98;;;;;;;;;;5045139;28;20418;-73
2023/11/25 05:26:30;;;;;;;5.13;0.95;;;;;;;;;;5044433;28;20059;-73
2023/11/25 05:29:00;;;;;;;5.57;1.08;;;;;;;;;;5044639;28;20068;-73
2023/11/25 05:31:33;;;;;;;4.20;1.50;;;;;;;;;;5043260;28;20061;-73
2023/11/25 05:34:04;;;;;;;6.53;1.75;;;;;;;;;;5043347;28;20056;-73
2023/11/25 05:36:35;;;;;;;4.85;1.42;;;;;;;;;;5044325;28;20037;-73
2023/11/25 05:39:12;;;;;;;6.53;1.20;;;;;;;;;;5043033;28;20057;-73
2023/11/25 05:41:43;;;;;;;2.70;1.10;;;;;;;;;;5043242;28;20521;-73
2023/11/25 05:44:13;;;;;;;2.60;0.63;;;;;;;;;;5044762;28;20519;-73
2023/11/25 05:46:44;;;;;;;4.03;0.80;;;;;;;;;;5044634;28;20044;-73
2023/11/25 05:49:15;;;;;;;2.95;0.68;;;;;;;;;;5044823;28;20511;-73
2023/11/25 05:51:45;;;;;;;3.28;0.38;;;;;;;;;;5043157;28;20041;-73
2023/11/25 05:54:16;;;;;;;1.92;0.50;;;;;;;;;;5044329;28;20052;-73
2023/11/25 05:56:50;;;;;;;5.70;0.57;;;;;;;;;;5044337;28;20049;-73
2023/11/25 05:59:20;;;;;;;2.88;0.60;;;;;;;;;;5044154;28;20078;-72
2023/11/25 06:01:51;;;;;;;3.58;0.88;;;;;;;;;;5044123;28;20060;-73
2023/11/25 06:04:21;;;;;;;3.72;0.52;;;;;;;;;;5042947;28;20052;-73
2023/11/25 06:06:52;;;;;;;1.77;0.98;;;;;;;;;;5043162;28;20048;-72
2023/11/25 06:09:22;;;;;;;5.38;1.15;;;;;;;;;;5043531;28;20041;-73
2023/11/25 06:11:52;;;;;;;3.20;1.10;;;;;;;;;;5042600;28;20388;-73
2023/11/25 06:14:24;;;;;;;4.45;1.08;;;;;;;;;;5044269;28;20124;-73
2023/11/25 06:16:56;;;;;;;3.30;0.77;;;;;;;;;;5043610;28;20049;-73
2023/11/25 06:19:29;;;;;;;2.53;1.42;;;;;;;;;;5043676;28;20052;-73
2023/11/25 06:22:01;;;;;;;4.78;0.70;;;;;;;;;;5042197;28;20052;-73
2023/11/25 06:24:32;;;;;;;4.22;0.60;;;;;;;;;;5043540;28;20061;-73
2023/11/25 06:27:03;;;;;;;7.43;1.00;;;;;;;;;;5043825;28;20056;-72
2023/11/25 06:29:33;;;;;;;6.50;1.20;;;;;;;;;;5043391;28;20488;-73
2023/11/25 06:32:03;;;;;;;3.75;1.10;;;;;;;;;;5043437;28;20059;-73
2023/11/25 06:34:35;;;;;;;4.15;1.10;;;;;;;;;;5043544;28;20049;-73
2023/11/25 06:37:06;;;;;;;4.90;1.15;;;;;;;;;;5042899;28;20053;-72
2023/11/25 06:39:36;;;;;;;4.60;0.73;;;;;;;;;;5043130;28;20571;-73
2023/11/25 06:42:09;;;;;;;5.13;0.70;;;;;;;;;;5043971;28;20061;-73
2023/11/25 06:44:40;;;;;;;3.03;0.60;;;;;;;;;;5042586;28;20052;-73
2023/11/25 06:47:14;;;;;;;4.07;0.68;;;;;;;;;;5043236;28;20049;-73
2023/11/25 06:49:46;;;;;;;4.10;0.70;;;;;;;;;;5041825;28;20048;-73
2023/11/25 06:52:16;;;;;;;2.83;0.43;;;;;;;;;;5042694;28;20056;-72
2023/11/25 06:54:46;;;;;;;5.72;0.63;;;;;;;;;;5043464;28;20060;-73
2023/11/25 06:57:17;;;;;;;4.10;1.13;;;;;;;;;;5043008;28;20092;-73
2023/11/25 06:59:48;;;;;;;1.85;0.40;;;;;;;;;;5042930;28;20061;-72
2023/11/25 07:02:18;;;;;;;5.28;0.70;;;;;;;;;;5042878;28;20052;-72
2023/11/25 07:04:49;;;;;;;1.13;0.60;;;;;;;;;;5042866;28;20419;-73
2023/11/25 07:07:20;;;;;;;1.50;0.70;;;;;;;;;;5042754;28;20412;-72
2023/11/25 07:09:54;;;;;;;7.47;0.80;;;;;;;;;;5042852;28;20041;-73
2023/11/25 07:12:24;;;;;;;3.00;0.68;;;;;;;;;;5043429;28;20049;-72
2023/11/25 07:14:54;;;;;;;2.55;0.60;;;;;;;;;;5042317;28;20052;-72
2023/11/25 07:17:24;;;;;;;3.42;0.60;;;;;;;;;;5041591;28;20053;-72
2023/11/25 07:19:55;;;;;;;1.50;0.40;;;;;;;;;;5042425;28;20055;-72
2023/11/25 07:22:26;;;;;;;3.90;0.60;;;;;;;;;;5042111;28;20676;-72
2023/11/25 07:24:56;;;;;;;1.02;0.35;;;;;;;;;;5041767;28;20041;-72
2023/11/25 07:27:27;;;;;;;3.00;0.63;;;;;;;;;;5041938;28;20049;-73
2023/11/25 07:30:00;;;;;;;3.05;0.50;;;;;;;;;;5043234;28;20060;-72
2023/11/25 07:32:32;;;;;;;4.20;0.32;;;;;;;;;;5042173;28;20051;-73
2023/11/25 07:35:06;;;;;;;2.25;0.47;;;;;;;;;;5042108;28;20415;-72
2023/11/25 07:37:38;;;;;;;1.15;0.50;;;;;;;;;;5042075;28;20057;-72
2023/11/25 07:40:12;;;;;;;6.82;0.80;;;;;;;;;;5042660;28;20048;-72
2023/11/25 07:42:51;;;;;;;4.75;0.60;;;;;;;;;;5042887;28;20049;-73
2023/11/25 07:45:21;;;;;;;3.88;0.50;;;;;;;;;;5042715;28;20049;-72
2023/11/25 07:47:51;;;;;;;2.80;0.30;;;;;;;;;;5042232;28;20037;-72
2023/11/25 07:50:24;;;;;;;1.58;0.40;;;;;;;;;;5041128;28;20049;-73
2023/11/25 07:52:55;;;;;;;2.80;0.30;;;;;;;;;;5040866;28;20052;-72
2023/11/25 07:55:25;;;;;;;7.03;0.60;;;;;;;;;;5042135;28;20055;-72
2023/11/25 07:57:58;;;;;;;1.27;0.40;;;;;;;;;;5042472;28;20044;-72
2023/11/25 08:00:28;;;;;;;3.85;0.80;;;;;;;;;;5041761;28;20053;-72
2023/11/25 08:02:58;;;;;;;0.73;0.60;;;;;;;;;;5042380;28;20593;-72
2023/11/25 08:06:05;;;;;;;0.98;0.60;;;;;;;;;;5041909;28;20384;-72
2023/11/25 08:08:36;;;;;;;3.05;0.52;;;;;;;;;;5041511;28;20539;-72
2023/11/25 08:11:06;;;;;;;3.47;0.60;;;;;;;;;;5041764;28;20045;-72
2023/11/25 08:13:36;;;;;;;2.13;0.70;;;;;;;;;;5042257;28;20415;-73
2023/11/25 08:16:07;;;;;;;2.20;0.70;;;;;;;;;;5042302;28;20049;-73
2023/11/25 08:18:38;;;;;;;0.32;0.32;;;;;;;;;;5042333;28;20527;-72
2023/11/25 08:21:10;;;;;;;1.63;0.60;;;;;;;;;;5041961;28;20053;-72
2023/11/25 08:23:43;;;;;;;2.38;0.55;;;;;;;;;;5041883;28;20056;-73
2023/11/25 08:26:22;;;;;;;5.72;0.70;;;;;;;;;;5041964;28;20438;-73
2023/11/25 08:28:55;;;;;;;4.22;0.60;;;;;;;;;;5041964;28;20518;-72
2023/11/25 08:31:26;;;;;;;0.82;0.47;;;;;;;;;;5042037;28;20041;-73
2023/11/25 08:33:56;;;;;;;3.45;0.52;;;;;;;;;;5042349;28;20045;-72
2023/11/25 08:36:27;;;;;;;1.88;0.75;;;;;;;;;;5041877;28;20045;-73
2023/11/25 08:39:01;;;;;;;3.50;0.47;;;;;;;;;;5041220;28;20504;-72
2023/11/25 08:41:31;;;;;;;1.73;0.82;;;;;;;;;;5041777;28;20045;-73
2023/11/25 08:44:01;;;;;;;2.60;0.70;;;;;;;;;;5041422;28;20419;-72
2023/11/25 08:46:33;;;;;;;2.28;0.80;;;;;;;;;;5040195;28;20423;-72
2023/11/25 08:49:04;;;;;;;2.67;0.45;;;;;;;;;;5041645;28;20041;-72
2023/11/25 08:51:35;;;;;;;6.32;1.27;;;;;;;;;;5041769;28;20400;-73
2023/11/25 08:54:04;;;;;;;6.43;1.27;;;;;;;;;;5041370;28;20056;-72
2023/11/25 08:56:36;;;;;;;5.00;1.35;;;;;;;;;;5041689;28;20052;-73
2023/11/25 08:59:06;;;;;;;8.63;3.53;;;;;;;;;;5040506;28;20053;-72
2023/11/25 09:02:16;;;;;;;13.40;6.00;;;;;;;;;;5041393;28;20860;-73
2023/11/25 09:04:46;;;;;;;14.82;4.13;;;;;;;;;;5041453;28;20693;-73
2023/11/25 09:07:34;;;;;;;6.07;3.10;;;;;;;;;;5041194;28;20037;-73
2023/11/25 09:10:05;;;;;;;9.35;2.33;;;;;;;;;;5041711;28;20053;-72
2023/11/25 09:12:37;;;;;;;7.82;2.67;;;;;;;;;;5039655;28;20053;-73
2023/11/25 09:15:08;;;;;;;7.38;1.20;;;;;;;;;;5041338;28;20049;-78
2023/11/25 09:17:39;;;;;;;3.70;1.00;;;;;;;;;;5043089;28;20049;-73
2023/11/25 09:20:16;;;;;;;8.13;3.80;;;;;;;;;;5044715;28;20051;-73
2023/11/25 09:22:46;;;;;;;8.27;3.33;;;;;;;;;;5044703;28;20057;-73
2023/11/25 09:25:17;;;;;;;8.10;1.45;;;;;;;;;;5044705;28;20041;-73
2023/11/25 09:27:50;;;;;;;6.75;0.93;;;;;;;;;;5044088;28;20523;-73
2023/11/25 09:30:20;;;;;;;4.82;0.88;;;;;;;;;;5044287;28;20041;-73
2023/11/25 09:32:51;;;;;;;2.65;0.85;;;;;;;;;;5044722;28;20052;-73
2023/11/25 09:35:22;;;;;;;3.25;0.70;;;;;;;;;;5044635;28;20049;-73
2023/11/25 09:37:52;;;;;;;4.03;1.08;;;;;;;;;;5044343;28;20400;-74
2023/11/25 09:40:27;;;;;;;4.15;0.88;;;;;;;;;;5044978;28;20050;-73
2023/11/25 09:42:59;;;;;;;6.22;0.80;;;;;;;;;;5043887;28;20045;-73
2023/11/25 09:45:30;;;;;;;11.48;1.33;;;;;;;;;;5044644;28;20045;-73
2023/11/25 09:48:00;;;;;;;5.63;0.80;;;;;;;;;;5043849;28;20064;-73
2023/11/25 09:50:34;;;;;;;8.48;1.30;;;;;;;;;;5044761;28;21045;-72
2023/11/25 09:53:12;;;;;;;4.93;0.77;;;;;;;;;;5044246;28;20123;-73
2023/11/25 09:55:55;;;;;;;8.82;0.88;;;;;;;;;;5044307;28;20423;-72
2023/11/25 09:58:27;;;;;;;7.60;0.90;;;;;;;;;;5044332;28;20115;-81
2023/11/25 10:00:59;;;;;;;6.97;0.80;;;;;;;;;;5042725;28;20060;-73
2023/11/25 10:03:33;;;;;;;3.53;0.70;;;;;;;;;;5044061;28;20518;-72
2023/11/25 10:06:04;;;;;;;4.70;1.13;;;;;;;;;;5043898;28;20045;-73
2023/11/25 10:08:35;;;;;;;7.25;1.23;;;;;;;;;;5043234;28;20056;-73
2023/11/25 10:11:08;;;;;;;4.95;0.80;;;;;;;;;;5044054;28;20056;-73
2023/11/25 10:13:40;;;;;;;6.63;1.10;;;;;;;;;;5044379;28;20080;-72
2023/11/25 10:16:12;;;;;;;10.88;1.48;;;;;;;;;;5043954;28;20523;-74
2023/11/25 10:18:43;;;;;;;8.25;0.70;;;;;;;;;;5043833;28;20053;-74
2023/11/25 10:21:15;;;;;;;11.55;2.42;;;;;;;;;;5043953;28;20521;-74
2023/11/25 10:23:45;;;;;;;8.18;0.70;;;;;;;;;;5043224;28;20499;-75
2023/11/25 10:26:18;;;;;;;7.05;0.88;;;;;;;;;;5043386;28;20496;-74
2023/11/25 10:28:49;;;;;;;3.75;0.70;;;;;;;;;;5043416;28;20057;-74
2023/11/25 10:31:19;;;;;;;4.28;1.25;;;;;;;;;;5043988;28;20517;-75
2023/11/25 10:33:56;;;;;;;8.02;1.10;;;;;;;;;;5041736;28;20044;-75
2023/11/25 10:36:28;;;;;;;6.05;0.90;;;;;;;;;;5042902;28;20048;-81
2023/11/25 10:39:02;;;;;;;4.78;0.68;;;;;;;;;;5043649;28;20056;-76
2023/11/25 10:41:37;;;;;;;5.13;0.95;;;;;;;;;;5043080;28;20052;-75
2023/11/25 10:44:08;;;;;;;7.38;1.17;;;;;;;;;;5041960;28;20542;-73
2023/11/25 10:46:41;;;;;;;3.60;1.30;;;;;;;;;;5041591;28;20516;-73
2023/11/25 10:49:15;;;;;;;9.80;1.00;;;;;;;;;;5043092;28;20048;-75
2023/11/25 10:51:46;;;;;;;5.55;0.95;;;;;;;;;;5043275;28;20056;-74
2023/11/25 10:54:18;;;;;;;8.45;0.90;;;;;;;;;;5043059;28;20044;-74
2023/11/25 10:56:49;;;;;;;4.80;0.77;;;;;;;;;;5041349;28;20053;-74
2023/11/25 10:59:23;;;;;;;10.95;1.23;;;;;;;;;;5042871;28;20488;-77
2023/11/25 11:05:08;;;;;;;6.32;0.77;;;;;;;;;;5043025;28;20056;-78
2023/11/25 11:07:59;;;;;;;7.80;1.98;;;;;;;;;;5042716;28;20044;-75
2023/11/25 11:10:47;;;;;;;5.85;0.82;;;;;;;;;;5042572;28;20615;-79
2023/11/25 11:13:26;;;;;;;6.32;1.15;;;;;;;;;;5042902;28;20041;-77
2023/11/25 11:16:00;;;;;;;5.28;0.68;;;;;;;;;;5042891;28;20044;-75
2023/11/25 11:18:37;;;;;;;4.07;0.88;;;;;;;;;;5042730;28;20496;-75
2023/11/25 11:21:09;;;;;;;5.90;0.95;;;;;;;;;;5042766;28;20508;-75
2023/11/25 11:23:41;;;;;;;5.00;0.60;;;;;;;;;;5042752;28;20052;-75
2023/11/25 11:26:23;;;;;;;4.05;0.93;;;;;;;;;;5042589;28;20408;-78
2023/11/25 11:29:08;;;;;;;4.28;0.80;;;;;;;;;;5042338;28;20059;-75
2023/11/25 11:32:09;;;;;;;8.70;1.27;;;;;;;;;;5042345;28;20056;-75
2023/11/25 11:34:42;;;;;;;4.75;0.80;;;;;;;;;;5041766;28;20053;-75
2023/11/25 11:37:13;;;;;;;7.63;1.27;;;;;;;;;;5042890;28;20056;-75
2023/11/25 11:39:51;;;;;;;8.57;1.00;;;;;;;;;;5040113;28;20060;-79
2023/11/25 11:42:29;;;;;;;8.27;1.00;;;;;;;;;;5042402;28;20527;-74
2023/11/25 11:45:11;;;;;;;7.45;0.82;;;;;;;;;;5041632;28;20049;-74
2023/11/25 11:47:47;;;;;;;8.35;0.90;;;;;;;;;;5042067;28;20518;-75
2023/11/25 11:50:18;;;;;;;;;;;;;;;;;;5042537;28;20067;-75
2023/11/25 11:52:49;;;;;;;8.25;0.88;;;;;;;;;;5042719;28;19924;-75
2023/11/25 11:55:42;;;;;;;5.22;0.70;;;;;;;;;;5042239;28;20045;-76
2023/11/25 11:58:15;;;;;;;6.90;0.95;;;;;;;;;;5042067;28;20068;-74
2023/11/25 12:01:06;;;;;;;6.18;0.95;;;;;;;;;;5042664;28;20435;-84
2023/11/25 12:03:38;;;;;;;4.85;0.77;;;;;;;;;;5041324;28;20056;-77
2023/11/25 12:06:11;;;;;;;6.28;1.10;;;;;;;;;;5041988;28;20055;-75
2023/11/25 12:08:41;;;;;;;7.38;1.10;;;;;;;;;;5041650;28;20045;-76
2023/11/25 12:11:12;;;;;;;7.40;0.75;;;;;;;;;;5041364;28;20059;-74
2023/11/25 12:13:43;;;;;;;4.20;0.70;;;;;;;;;;5041511;28;20053;-74
2023/11/25 12:16:15;;;;;;;3.47;0.70;;;;;;;;;;5022516;28;20054;-75
2023/11/25 12:18:47;;;;;;;3.13;0.60;;;;;;;;;;5026376;28;20038;-75
2023/11/25 12:21:17;;;;;;;5.63;0.80;;;;;;;;;;5023852;28;20056;-75
2023/11/25 12:23:48;;;;;;;2.30;0.60;;;;;;;;;;5022376;28;20053;-76
2023/11/25 12:26:24;;;;;;;4.07;0.90;;;;;;;;;;5022167;28;20053;-73
2023/11/25 12:29:01;;;;;;;5.57;0.70;;;;;;;;;;5021730;28;20049;-74
2023/11/25 12:31:33;;;;;;;3.78;0.70;;;;;;;;;;5005050;28;20065;-78
2023/11/25 12:34:04;;;;;;;5.63;0.80;;;;;;;;;;5021975;28;20049;-74
2023/11/25 12:36:35;;;;;;;3.35;0.60;;;;;;;;;;5022184;28;20056;-75
2023/11/25 12:39:11;;;;;;;5.60;0.65;;;;;;;;;;5021741;28;20053;-75
2023/11/25 12:41:43;;;;;;;3.75;0.60;;;;;;;;;;5022238;28;20340;-74
2023/11/25 12:44:15;;;;;;;11.32;2.05;;;;;;;;;;5026355;28;20057;-75
2023/11/25 12:47:08;;;;;;;5.25;0.90;;;;;;;;;;5021871;28;20053;-74
2023/11/25 12:49:39;;;;;;;3.60;0.77;;;;;;;;;;5027056;28;20054;-75
2023/11/25 12:52:30;;;;;;;5.00;0.80;;;;;;;;;;5025361;28;20061;-75
2023/11/25 12:55:00;;;;;;;2.72;0.43;;;;;;;;;;5025446;28;20049;-75
2023/11/25 12:57:32;;;;;;;8.70;0.95;;;;;;;;;;5025460;28;20388;-74
2023/11/25 13:00:12;;;;;;;6.53;1.02;;;;;;;;;;5025184;28;20504;-73
2023/11/25 13:02:45;;;;;;;3.15;0.80;;;;;;;;;;5025014;28;20049;-75
2023/11/25 13:05:23;;;;;;;4.70;1.20;;;;;;;;;;5025432;28;20060;-75
2023/11/25 13:07:55;;;;;;;5.78;1.52;;;;;;;;;;5024898;28;20049;-76
2023/11/25 13:10:26;;;;;;;4.63;0.73;;;;;;;;;;5025576;28;20049;-74
2023/11/25 13:12:56;;;;;;;6.38;0.73;;;;;;;;;;5025392;28;20045;-75
2023/11/25 13:15:26;;;;;;;1.38;0.60;;;;;;;;;;5025021;28;20041;-76
2023/11/25 13:17:56;;;;;;;4.60;0.63;;;;;;;;;;5024893;28;20045;-79
2023/11/25 13:20:27;;;;;;;4.15;0.45;;;;;;;;;;5025186;28;20045;-78
2023/11/25 13:22:57;;;;;;;2.28;0.68;;;;;;;;;;5025466;28;20408;-74
2023/11/25 13:25:28;;;;;;;11.32;0.90;;;;;;;;;;5024683;28;20056;-76
2023/11/25 13:27:59;;;;;;;3.97;0.50;;;;;;;;;;5025238;28;20049;-75
2023/11/25 13:30:32;;;;;;;3.47;0.70;;;;;;;;;;5025481;28;20088;-76
2023/11/25 13:33:03;;;;;;;3.28;0.50;;;;;;;;;;5025794;28;20836;-75
2023/11/25 13:35:36;;;;;;;6.78;0.73;;;;;;;;;;5024642;28;20825;-77
2023/11/25 13:38:06;;;;;;;2.85;0.50;;;;;;;;;;5022294;28;20540;-75
2023/11/25 13:43:39;;;;;;;4.78;0.60;;;;;;;;;;5023095;28;20060;-76
2023/11/25 13:46:09;;;;;;;4.30;0.80;;;;;;;;;;5024157;28;20053;-76
2023/11/25 13:48:40;;;;;;;3.08;0.70;;;;;;;;;;5023618;28;20052;-79
2023/11/25 13:51:10;;;;;;;9.27;0.60;;;;;;;;;;5024502;28;20527;-76
2023/11/25 13:53:42;;;;;;;5.10;0.90;;;;;;;;;;5023020;28;20050;-77
2023/11/25 13:56:13;;;;;;;3.25;0.43;;;;;;;;;;5024577;28;20045;-75
2023/11/25 13:58:43;;;;;;;4.82;0.60;;;;;;;;;;5024947;28;20054;-77
2023/11/25 14:01:14;;;;;;;3.83;0.70;;;;;;;;;;5024817;28;20052;-78
2023/11/25 14:03:44;;;;;;;6.28;0.75;;;;;;;;;;5023409;28;20049;-77
2023/11/25 14:06:15;;;;;;;5.63;0.75;;;;;;;;;;5024692;28;20052;-79
2023/11/25 14:09:18;;;;;;;2.80;0.70;;;;;;;;;;5024063;28;20041;-77
2023/11/25 14:11:48;;;;;;;4.20;0.60;;;;;;;;;;5024635;28;20046;-74
2023/11/25 14:14:18;;;;;;;3.85;0.80;;;;;;;;;;5024354;28;20057;-76
2023/11/25 14:16:49;;;;;;;3.08;0.60;;;;;;;;;;5025029;28;20061;-80
2023/11/25 14:19:20;;;;;;;2.08;0.50;;;;;;;;;;5024175;28;20057;-76
2023/11/25 14:21:53;;;;;;;4.78;0.63;;;;;;;;;;5022710;28;20041;-76
2023/11/25 14:24:23;;;;;;;3.63;0.50;;;;;;;;;;5024167;28;20045;-76
2023/11/25 14:26:54;;;;;;;3.47;0.68;;;;;;;;;;5023492;28;20057;-77
2023/11/25 14:29:25;;;;;;;4.82;0.60;;;;;;;;;;5023575;28;20053;-76
2023/11/25 14:32:07;;;;;;;2.63;0.88;;;;;;;;;;5023365;28;20053;-77
2023/11/25 14:34:40;;;;;;;8.18;1.13;;;;;;;;;;5024061;28;20060;-76
2023/11/25 14:37:10;;;;;;;5.10;0.60;;;;;;;;;;5022495;28;20057;-77
2023/11/25 14:39:41;;;;;;;5.03;0.70;;;;;;;;;;5024385;28;20045;-76
2023/11/25 14:42:24;;;;;;;5.68;0.75;;;;;;;;;;5023334;28;20056;-77
2023/11/25 14:44:56;;;;;;;3.90;0.90;;;;;;;;;;5023540;28;20053;-77
2023/11/25 14:47:27;;;;;;;2.90;0.68;;;;;;;;;;5023105;28;20055;-76
2023/11/25 14:49:58;;;;;;;4.80;0.50;;;;;;;;;;5023556;28;20054;-78
2023/11/25 14:52:28;;;;;;;3.22;0.65;;;;;;;;;;5023344;28;20049;-76
2023/11/25 14:55:01;;;;;;;4.15;0.50;;;;;;;;;;5022961;28;20060;-77
2023/11/25 14:57:32;;;;;;;4.78;0.70;;;;;;;;;;5022759;28;20057;-76
2023/11/25 15:00:08;;;;;;;7.13;0.70;;;;;;;;;;5023348;28;20049;-78
2023/11/25 15:02:40;;;;;;;5.57;0.63;;;;;;;;;;5023378;28;20060;-76
2023/11/25 15:05:10;;;;;;;4.70;0.73;;;;;;;;;;5023226;28;20080;-81
2023/11/25 15:07:41;;;;;;;2.08;0.70;;;;;;;;;;5023014;28;20045;-76
2023/11/25 15:10:12;;;;;;;2.60;0.85;;;;;;;;;;5023697;28;20049;-78
2023/11/25 15:12:42;;;;;;;2.20;0.52;;;;;;;;;;5023391;28;20053;-79
2023/11/25 15:15:13;;;;;;;4.50;0.50;;;;;;;;;;5023465;28;20049;-78
2023/11/25 15:17:44;;;;;;;2.38;0.45;;;;;;;;;;5022531;28;20068;-76
2023/11/25 15:20:14;;;;;;;4.55;0.40;;;;;;;;;;5022923;28;20500;-78
2023/11/25 15:22:45;;;;;;;5.03;0.80;;;;;;;;;;5022925;28;20052;-77
2023/11/25 15:25:15;;;;;;;4.95;0.77;;;;;;;;;;5022871;28;20423;-76
2023/11/25 15:27:47;;;;;;;5.55;0.73;;;;;;;;;;5021228;28;20049;-76